Station Historical Data
Daily Summary for July 1, 2017 Units:  English    Metric   Both
« Previous Day
Next Day »
Daily Weekly Monthly Yearly Custom
  High: Low: Average:
Temperature: 74.8 °F 66.1 °F 70.7 °F
Dew Point: 68.8 °F 59.7 °F 65.4 °F
Humidity: 92% 71% 84%
Wind Speed: 17.0mph 0.0mph 3.6mph
Wind Gust: 23.0mph - -
Wind- - SW
Pressure: 29.92 in 29.78 in -
Precipitation: 0.00 in    
Historical Graphs
 
 
Tabular Data for July 1, 2017
Time Temperature Dew Point Pressure Wind Wind Speed Wind Gust Humidity Rainfall Rate (Hourly)
00:04 71.4 °F 66.3 °F 29.85 in West 3.0 mph 10.0 mph 84% 0.00 in
00:09 71.3 °F 66.6 °F 29.86 in West 2.0 mph 9.0 mph 85% 0.00 in
00:14 71.2 °F 66.5 °F 29.86 in West 10.0 mph 10.0 mph 85% 0.00 in
00:19 71.2 °F 66.5 °F 29.86 in SSW 2.0 mph 10.0 mph 85% 0.00 in
00:24 71.0 °F 66.3 °F 29.86 in West 6.0 mph 7.0 mph 85% 0.00 in
00:29 71.0 °F 66.6 °F 29.86 in SW 4.0 mph 7.0 mph 86% 0.00 in
00:34 70.8 °F 66.4 °F 29.85 in SW 4.0 mph 9.0 mph 86% 0.00 in
00:39 70.7 °F 66.3 °F 29.86 in SW 4.0 mph 9.0 mph 86% 0.00 in
00:44 70.7 °F 66.3 °F 29.86 in WSW 3.0 mph 6.0 mph 86% 0.00 in
00:49 70.6 °F 66.2 °F 29.86 in WSW 1.0 mph 4.0 mph 86% 0.00 in
00:54 70.4 °F 66.3 °F 29.86 in WSW 4.0 mph 5.0 mph 87% 0.00 in
00:59 70.4 °F 66.3 °F 29.86 in SW 2.0 mph 7.0 mph 87% 0.00 in
01:04 70.3 °F 66.2 °F 29.86 in SW 2.0 mph 5.0 mph 87% 0.00 in
01:09 70.2 °F 66.1 °F 29.85 in SW 4.0 mph 4.0 mph 87% 0.00 in
01:14 70.1 °F 66.4 °F 29.85 in SSW 3.0 mph 4.0 mph 88% 0.00 in
01:19 70.0 °F 66.3 °F 29.85 in Calm   5.0 mph 88% 0.00 in
01:24 69.9 °F 66.2 °F 29.85 in Calm   5.0 mph 88% 0.00 in
01:29 69.8 °F 66.1 °F 29.85 in SSW 1.0 mph 5.0 mph 88% 0.00 in
01:34 69.8 °F 66.1 °F 29.85 in SSW 1.0 mph 4.0 mph 88% 0.00 in
01:39 69.7 °F 66.0 °F 29.85 in SSW 1.0 mph 4.0 mph 88% 0.00 in
01:44 69.7 °F 66.0 °F 29.85 in SW 1.0 mph 4.0 mph 88% 0.00 in
01:49 69.6 °F 65.9 °F 29.85 in Calm     88% 0.00 in
01:54 69.5 °F 66.1 °F 29.85 in Calm     89% 0.01 in
01:59 69.5 °F 66.1 °F 29.85 in Calm     89% 0.01 in
02:04 69.5 °F 66.1 °F 29.85 in Calm     89% 0.01 in
02:09 69.5 °F 66.1 °F 29.84 in Calm     89% 0.01 in
02:14 69.4 °F 66.0 °F 29.84 in SSE 1.0 mph 4.0 mph 89% 0.01 in
02:19 69.3 °F 65.9 °F 29.84 in SSE 1.0 mph 4.0 mph 89% 0.01 in
02:24 69.3 °F 65.9 °F 29.83 in SSE 1.0 mph 2.0 mph 89% 0.01 in
02:29 69.2 °F 65.8 °F 29.83 in SSE 2.0 mph 5.0 mph 89% 0.01 in
02:34 69.2 °F 65.8 °F 29.83 in Calm   4.0 mph 89% 0.01 in
02:39 69.2 °F 65.8 °F 29.82 in Calm   3.0 mph 89% 0.01 in
02:44 69.1 °F 65.7 °F 29.81 in Calm     89% 0.01 in
02:49 69.1 °F 65.7 °F 29.81 in Calm     89% 0.01 in
02:54 69.1 °F 65.7 °F 29.82 in Calm     89% 0.00 in
02:59 69.1 °F 65.4 °F 29.81 in Calm     88% 0.00 in
03:04 69.1 °F 65.4 °F 29.80 in Calm     88% 0.00 in
03:09 69.1 °F 65.4 °F 29.80 in Calm     88% 0.00 in
03:14 69.0 °F 65.3 °F 29.80 in Calm     88% 0.00 in
03:19 69.0 °F 65.3 °F 29.80 in SSE 1.0 mph 4.0 mph 88% 0.00 in
03:24 69.0 °F 65.3 °F 29.80 in SSE 1.0 mph 4.0 mph 88% 0.00 in
03:29 69.0 °F 65.0 °F 29.80 in Calm   2.0 mph 87% 0.00 in
03:34 69.0 °F 65.0 °F 29.79 in Calm     87% 0.00 in
03:39 69.0 °F 65.0 °F 29.79 in Calm     87% 0.00 in
03:44 68.9 °F 65.2 °F 29.79 in SSE 2.0 mph 3.0 mph 88% 0.00 in
03:49 68.9 °F 65.2 °F 29.79 in SE 2.0 mph 4.0 mph 88% 0.00 in
03:54 68.8 °F 65.1 °F 29.78 in Calm   5.0 mph 88% 0.00 in
03:59 68.7 °F 65.0 °F 29.78 in Calm   2.0 mph 88% 0.00 in
04:04 68.7 °F 65.0 °F 29.79 in SSE 1.0 mph 5.0 mph 88% 0.00 in
04:09 68.6 °F 64.9 °F 29.79 in South 2.0 mph 5.0 mph 88% 0.00 in
04:14 68.6 °F 64.9 °F 29.79 in South 1.0 mph 4.0 mph 88% 0.00 in
04:19 68.6 °F 64.9 °F 29.79 in South 1.0 mph 4.0 mph 88% 0.00 in
04:24 68.5 °F 64.8 °F 29.79 in Calm   3.0 mph 88% 0.00 in
04:29 68.5 °F 64.8 °F 29.79 in Calm     88% 0.00 in
04:34 68.4 °F 64.7 °F 29.79 in Calm     88% 0.00 in
04:39 68.4 °F 65.0 °F 29.80 in Calm     89% 0.00 in
04:44 68.3 °F 64.9 °F 29.80 in Calm     89% 0.00 in
04:49 68.3 °F 64.9 °F 29.80 in Calm     89% 0.00 in
04:54 68.3 °F 64.9 °F 29.80 in Calm     89% 0.00 in
04:59 68.3 °F 64.9 °F 29.80 in Calm     89% 0.00 in
05:04 68.2 °F 64.8 °F 29.80 in Calm     89% 0.00 in
05:09 68.3 °F 64.9 °F 29.80 in Calm     89% 0.00 in
05:14 68.3 °F 64.9 °F 29.80 in Calm     89% 0.00 in
05:19 68.3 °F 64.9 °F 29.80 in Calm     89% 0.00 in
05:24 68.4 °F 65.0 °F 29.80 in Calm     89% 0.00 in
05:29 68.4 °F 65.0 °F 29.80 in Calm     89% 0.00 in
05:34 68.3 °F 64.9 °F 29.80 in Calm     89% 0.00 in
05:39 68.2 °F 64.8 °F 29.79 in Calm     89% 0.00 in
05:44 68.2 °F 64.8 °F 29.80 in Calm     89% 0.00 in
05:49 68.1 °F 65.1 °F 29.80 in Calm     90% 0.00 in
05:54 68.1 °F 65.1 °F 29.80 in Calm     90% 0.00 in
05:59 68.0 °F 65.0 °F 29.80 in Calm     90% 0.00 in
06:04 68.0 °F 65.0 °F 29.80 in Calm     90% 0.00 in
06:09 67.9 °F 64.9 °F 29.80 in Calm     90% 0.00 in
06:14 67.9 °F 64.9 °F 29.81 in Calm     90% 0.00 in
06:19 67.9 °F 65.2 °F 29.81 in Calm     91% 0.00 in
06:24 67.9 °F 65.2 °F 29.80 in Calm     91% 0.00 in
06:29 67.9 °F 65.2 °F 29.80 in Calm     91% 0.00 in
06:34 67.8 °F 65.1 °F 29.80 in Calm     91% 0.00 in
06:39 67.9 °F 65.2 °F 29.81 in Calm     91% 0.00 in
06:44 68.2 °F 65.5 °F 29.82 in Calm     91% 0.00 in
06:49 68.4 °F 66.0 °F 29.81 in Calm     92% 0.00 in
06:54 68.4 °F 65.7 °F 29.81 in Calm     91% 0.00 in
06:59 68.5 °F 65.8 °F 29.81 in Calm     91% 0.00 in
07:04 68.6 °F 65.9 °F 29.81 in Calm     91% 0.00 in
07:09 68.7 °F 66.0 °F 29.81 in Calm     91% 0.00 in
07:14 68.8 °F 66.1 °F 29.81 in Calm     91% 0.00 in
07:19 68.9 °F 65.8 °F 29.81 in Calm     90% 0.00 in
07:24 69.1 °F 66.0 °F 29.81 in Calm     90% 0.00 in
07:29 69.4 °F 66.0 °F 29.81 in Calm     89% 0.00 in
07:34 69.4 °F 66.0 °F 29.81 in Calm     89% 0.00 in
07:39 69.4 °F 66.0 °F 29.81 in Calm     89% 0.00 in
07:44 69.4 °F 66.0 °F 29.81 in Calm     89% 0.00 in
07:49 69.5 °F 66.1 °F 29.81 in Calm     89% 0.00 in
07:54 69.5 °F 66.1 °F 29.81 in Calm     89% 0.00 in
07:59 69.8 °F 66.4 °F 29.81 in Calm     89% 0.00 in
08:04 70.0 °F 66.6 °F 29.81 in Calm     89% 0.00 in
08:09 70.3 °F 66.9 °F 29.81 in Calm     89% 0.00 in
08:14 70.3 °F 66.6 °F 29.81 in Calm   3.0 mph 88% 0.00 in
08:19 70.3 °F 66.6 °F 29.81 in Calm   2.0 mph 88% 0.00 in
08:24 70.6 °F 66.9 °F 29.81 in South 1.0 mph 3.0 mph 88% 0.00 in
08:29 70.6 °F 66.9 °F 29.81 in SSW 1.0 mph 3.0 mph 88% 0.00 in
08:34 70.6 °F 66.5 °F 29.81 in WSW 1.0 mph 3.0 mph 87% 0.00 in
08:39 70.6 °F 66.5 °F 29.81 in SW 1.0 mph 4.0 mph 87% 0.00 in
08:44 70.5 °F 66.4 °F 29.81 in SW 2.0 mph 4.0 mph 87% 0.00 in
08:49 70.6 °F 66.5 °F 29.81 in SW 1.0 mph 4.0 mph 87% 0.00 in
08:54 70.7 °F 66.6 °F 29.81 in WSW 1.0 mph 3.0 mph 87% 0.00 in
08:59 70.8 °F 66.7 °F 29.81 in WSW 1.0 mph 3.0 mph 87% 0.00 in
09:04 71.0 °F 66.9 °F 29.81 in Calm   3.0 mph 87% 0.00 in
09:09 71.2 °F 66.8 °F 29.81 in West 2.0 mph 3.0 mph 86% 0.00 in
09:14 71.3 °F 66.9 °F 29.81 in West 1.0 mph 3.0 mph 86% 0.00 in
09:19 71.5 °F 66.8 °F 29.81 in SW 2.0 mph 4.0 mph 85% 0.00 in
09:24 71.9 °F 67.1 °F 29.81 in WSW 1.0 mph 3.0 mph 85% 0.00 in
09:29 71.9 °F 67.1 °F 29.81 in Calm   2.0 mph 85% 0.00 in
09:34 72.4 °F 67.6 °F 29.81 in WSW 2.0 mph 3.0 mph 85% 0.00 in
09:39 72.0 °F 66.9 °F 29.81 in Calm   3.0 mph 84% 0.00 in
09:44 71.8 °F 66.7 °F 29.81 in WSW 2.0 mph 4.0 mph 84% 0.00 in
09:49 72.0 °F 67.2 °F 29.81 in WSW 1.0 mph 4.0 mph 85% 0.00 in
09:54 72.1 °F 67.3 °F 29.81 in SW 3.0 mph 5.0 mph 85% 0.00 in
09:59 72.1 °F 67.3 °F 29.81 in WSW 4.0 mph 5.0 mph 85% 0.00 in
10:04 72.1 °F 67.0 °F 29.82 in West 1.0 mph 4.0 mph 84% 0.00 in
10:09 71.7 °F 66.6 °F 29.82 in WSW 3.0 mph 4.0 mph 84% 0.00 in
10:14 71.6 °F 66.8 °F 29.82 in WSW 2.0 mph 4.0 mph 85% 0.00 in
10:19 71.6 °F 66.8 °F 29.82 in WSW 2.0 mph 4.0 mph 85% 0.00 in
10:24 71.6 °F 66.8 °F 29.82 in WSW 1.0 mph 4.0 mph 85% 0.00 in
10:29 71.5 °F 66.4 °F 29.82 in West 2.0 mph 7.0 mph 84% 0.00 in
10:34 71.3 °F 66.6 °F 29.82 in West 2.0 mph 7.0 mph 85% 0.00 in
10:39 71.1 °F 66.4 °F 29.82 in WSW 3.0 mph 5.0 mph 85% 0.00 in
10:44 71.0 °F 66.6 °F 29.82 in WSW 3.0 mph 7.0 mph 86% 0.00 in
10:49 71.2 °F 66.8 °F 29.82 in SW 3.0 mph 7.0 mph 86% 0.00 in
10:54 70.9 °F 66.5 °F 29.82 in SSW 6.0 mph 8.0 mph 86% 0.00 in
10:59 70.8 °F 66.7 °F 29.82 in WSW 2.0 mph 6.0 mph 87% 0.01 in
11:04 70.6 °F 66.5 °F 29.82 in SW 2.0 mph 5.0 mph 87% 0.01 in
11:09 70.6 °F 66.9 °F 29.82 in Calm   6.0 mph 88% 0.01 in
11:14 71.0 °F 67.6 °F 29.82 in SW 2.0 mph 6.0 mph 89% 0.01 in
11:19 71.2 °F 67.5 °F 29.82 in SW 3.0 mph 7.0 mph 88% 0.01 in
11:24 71.2 °F 67.1 °F 29.82 in SW 3.0 mph 8.0 mph 87% 0.01 in
11:29 71.6 °F 67.5 °F 29.82 in WSW 3.0 mph 8.0 mph 87% 0.01 in
11:34 71.3 °F 66.9 °F 29.82 in WSW 4.0 mph 7.0 mph 86% 0.01 in
11:39 71.2 °F 67.1 °F 29.83 in SW 3.0 mph 9.0 mph 87% 0.01 in
11:44 71.3 °F 66.9 °F 29.82 in SW 6.0 mph 10.0 mph 86% 0.01 in
11:49 72.0 °F 68.2 °F 29.82 in SW 5.0 mph 10.0 mph 88% 0.01 in
11:54 72.1 °F 67.3 °F 29.82 in WSW 4.0 mph 10.0 mph 85% 0.01 in
11:59 73.0 °F 68.2 °F 29.82 in SSW 4.0 mph 10.0 mph 85% 0.00 in
12:04 73.8 °F 68.3 °F 29.82 in WSW 8.0 mph 11.0 mph 83% 0.00 in
12:09 74.3 °F 68.8 °F 29.82 in SW 11.0 mph 12.0 mph 83% 0.00 in
12:14 74.0 °F 67.8 °F 29.82 in WNW 2.0 mph 10.0 mph 81% 0.00 in
12:19 74.2 °F 68.7 °F 29.82 in WSW 4.0 mph 12.0 mph 83% 0.00 in
12:24 74.0 °F 67.4 °F 29.82 in SW 4.0 mph 11.0 mph 80% 0.00 in
12:29 74.6 °F 68.0 °F 29.82 in SW 5.0 mph 11.0 mph 80% 0.00 in
12:34 74.7 °F 67.8 °F 29.83 in WSW 5.0 mph 14.0 mph 79% 0.00 in
12:39 74.2 °F 67.3 °F 29.82 in WSW 7.0 mph 14.0 mph 79% 0.00 in
12:44 74.3 °F 67.4 °F 29.82 in SW 4.0 mph 9.0 mph 79% 0.00 in
12:49 73.8 °F 67.2 °F 29.83 in SW 6.0 mph 15.0 mph 80% 0.00 in
12:54 72.8 °F 66.3 °F 29.83 in SW 7.0 mph 15.0 mph 80% 0.00 in
12:59 72.1 °F 66.3 °F 29.83 in SW 7.0 mph 12.0 mph 82% 0.00 in
13:04 71.5 °F 66.4 °F 29.83 in WSW 5.0 mph 16.0 mph 84% 0.00 in
13:09 71.6 °F 66.5 °F 29.83 in SW 5.0 mph 12.0 mph 84% 0.00 in
13:14 72.0 °F 66.9 °F 29.83 in SW 6.0 mph 13.0 mph 84% 0.00 in
13:19 72.9 °F 67.1 °F 29.83 in SW 6.0 mph 13.0 mph 82% 0.00 in
13:24 72.9 °F 66.7 °F 29.83 in WSW 6.0 mph 15.0 mph 81% 0.00 in
13:29 72.7 °F 66.9 °F 29.83 in WSW 9.0 mph 17.0 mph 82% 0.00 in
13:34 73.6 °F 67.8 °F 29.83 in WSW 4.0 mph 15.0 mph 82% 0.00 in
13:39 74.0 °F 67.1 °F 29.83 in SSE 9.0 mph 19.0 mph 79% 0.00 in
13:44 73.4 °F 66.9 °F 29.83 in West 4.0 mph 15.0 mph 80% 0.00 in
13:49 73.1 °F 66.6 °F 29.83 in WSW 9.0 mph 15.0 mph 80% 0.00 in
13:54 73.2 °F 66.7 °F 29.83 in WSW 8.0 mph 16.0 mph 80% 0.00 in
13:59 73.1 °F 66.9 °F 29.83 in WSW 8.0 mph 16.0 mph 81% 0.00 in
14:04 73.3 °F 66.8 °F 29.83 in WSW 9.0 mph 16.0 mph 80% 0.00 in
14:09 73.0 °F 66.5 °F 29.83 in SSW 10.0 mph 17.0 mph 80% 0.00 in
14:14 73.0 °F 66.5 °F 29.83 in West 6.0 mph 17.0 mph 80% 0.00 in
14:19 72.9 °F 66.7 °F 29.83 in WSW 8.0 mph 17.0 mph 81% 0.00 in
14:24 72.9 °F 66.7 °F 29.83 in WSW 7.0 mph 16.0 mph 81% 0.00 in
14:29 73.0 °F 66.8 °F 29.83 in WNW 9.0 mph 15.0 mph 81% 0.00 in
14:34 72.9 °F 66.7 °F 29.83 in South 12.0 mph 20.0 mph 81% 0.00 in
14:39 72.4 °F 66.2 °F 29.83 in SW 6.0 mph 19.0 mph 81% 0.00 in
14:44 72.3 °F 66.5 °F 29.83 in WSW 3.0 mph 18.0 mph 82% 0.00 in
14:49 72.7 °F 66.5 °F 29.82 in WSW 9.0 mph 20.0 mph 81% 0.00 in
14:54 72.7 °F 66.9 °F 29.83 in WSW 9.0 mph 20.0 mph 82% 0.00 in
14:59 72.8 °F 67.0 °F 29.82 in WSW 8.0 mph 16.0 mph 82% 0.00 in
15:04 72.9 °F 67.1 °F 29.82 in WSW 7.0 mph 20.0 mph 82% 0.00 in
15:09 72.6 °F 66.8 °F 29.82 in WSW 8.0 mph 20.0 mph 82% 0.00 in
15:14 72.2 °F 66.4 °F 29.83 in WSW 10.0 mph 18.0 mph 82% 0.00 in
15:19 72.1 °F 66.6 °F 29.82 in WSW 10.0 mph 18.0 mph 83% 0.00 in
15:24 72.4 °F 66.9 °F 29.82 in SW 7.0 mph 23.0 mph 83% 0.00 in
15:29 72.6 °F 66.8 °F 29.83 in West 17.0 mph 18.0 mph 82% 0.00 in
15:34 72.6 °F 66.8 °F 29.82 in WSW 11.0 mph 18.0 mph 82% 0.00 in
15:39 72.9 °F 66.7 °F 29.82 in West 8.0 mph 16.0 mph 81% 0.00 in
15:44 73.4 °F 67.6 °F 29.82 in South 5.0 mph 13.0 mph 82% 0.00 in
15:49 73.9 °F 67.0 °F 29.82 in WSW 7.0 mph 17.0 mph 79% 0.00 in
15:54 73.4 °F 66.5 °F 29.82 in WSW 9.0 mph 18.0 mph 79% 0.00 in
15:59 73.1 °F 66.6 °F 29.82 in West 4.0 mph 17.0 mph 80% 0.00 in
16:04 73.3 °F 67.1 °F 29.82 in WSW 7.0 mph 16.0 mph 81% 0.00 in
16:09 73.4 °F 66.9 °F 29.81 in West 7.0 mph 22.0 mph 80% 0.00 in
16:14 73.9 °F 67.3 °F 29.81 in South 4.0 mph 17.0 mph 80% 0.00 in
16:19 74.2 °F 68.0 °F 29.82 in West 7.0 mph 17.0 mph 81% 0.00 in
16:24 74.4 °F 67.5 °F 29.82 in WSW 8.0 mph 17.0 mph 79% 0.00 in
16:29 74.8 °F 67.5 °F 29.82 in WSW 9.0 mph 17.0 mph 78% 0.00 in
16:34 74.7 °F 67.4 °F 29.83 in WSW 10.0 mph 21.0 mph 78% 0.00 in
16:39 74.5 °F 67.6 °F 29.83 in WSW 11.0 mph 21.0 mph 79% 0.00 in
16:44 74.0 °F 67.4 °F 29.83 in West 8.0 mph 17.0 mph 80% 0.00 in
16:49 74.4 °F 67.5 °F 29.83 in West 8.0 mph 16.0 mph 79% 0.00 in
16:54 74.7 °F 67.8 °F 29.83 in WSW 8.0 mph 17.0 mph 79% 0.00 in
16:59 74.2 °F 67.6 °F 29.83 in WSW 6.0 mph 16.0 mph 80% 0.00 in
17:04 73.8 °F 67.6 °F 29.83 in WSW 5.0 mph 15.0 mph 81% 0.00 in
17:09 73.5 °F 67.3 °F 29.84 in SW 9.0 mph 22.0 mph 81% 0.00 in
17:14 73.7 °F 67.5 °F 29.84 in SW 6.0 mph 19.0 mph 81% 0.00 in
17:19 73.2 °F 67.0 °F 29.84 in WSW 7.0 mph 19.0 mph 81% 0.00 in
17:24 73.1 °F 67.3 °F 29.84 in WSW 9.0 mph 19.0 mph 82% 0.00 in
17:29 73.5 °F 67.3 °F 29.83 in WSW 8.0 mph 16.0 mph 81% 0.00 in
17:34 74.5 °F 67.9 °F 29.83 in WSW 7.0 mph 16.0 mph 80% 0.00 in
17:39 74.4 °F 67.1 °F 29.83 in WSW 7.0 mph 19.0 mph 78% 0.00 in
17:44 73.8 °F 67.2 °F 29.83 in WSW 9.0 mph 19.0 mph 80% 0.00 in
17:49 73.9 °F 67.3 °F 29.84 in WSW 7.0 mph 18.0 mph 80% 0.00 in
17:54 74.0 °F 67.4 °F 29.84 in WSW 9.0 mph 18.0 mph 80% 0.00 in
17:59 74.0 °F 67.1 °F 29.84 in SW 13.0 mph 18.0 mph 79% 0.00 in
18:04 74.0 °F 67.1 °F 29.85 in SW 9.0 mph 18.0 mph 79% 0.00 in
18:09 73.7 °F 67.1 °F 29.84 in WSW 7.0 mph 20.0 mph 80% 0.00 in
18:14 73.4 °F 67.2 °F 29.84 in WSW 3.0 mph 18.0 mph 81% 0.00 in
18:19 73.1 °F 66.9 °F 29.84 in SW 8.0 mph 17.0 mph 81% 0.00 in
18:24 73.3 °F 67.1 °F 29.84 in WSW 7.0 mph 17.0 mph 81% 0.00 in
18:29 73.0 °F 67.2 °F 29.83 in WSW 7.0 mph 15.0 mph 82% 0.00 in
18:34 73.0 °F 67.2 °F 29.83 in WSW 8.0 mph 19.0 mph 82% 0.00 in
18:39 73.0 °F 66.8 °F 29.82 in WSW 4.0 mph 12.0 mph 81% 0.00 in
18:44 72.8 °F 66.3 °F 29.82 in SSW 10.0 mph 14.0 mph 80% 0.00 in
18:49 72.7 °F 65.8 °F 29.81 in SSW 5.0 mph 15.0 mph 79% 0.00 in
18:54 72.3 °F 65.1 °F 29.82 in SW 7.0 mph 15.0 mph 78% 0.00 in
18:59 71.9 °F 63.9 °F 29.83 in SW 7.0 mph 13.0 mph 76% 0.00 in
19:04 71.7 °F 64.5 °F 29.84 in WSW 6.0 mph 12.0 mph 78% 0.00 in
19:09 71.5 °F 64.3 °F 29.84 in SW 7.0 mph 14.0 mph 78% 0.00 in
19:14 71.2 °F 63.2 °F 29.84 in WSW 6.0 mph 15.0 mph 76% 0.00 in
19:19 71.0 °F 63.1 °F 29.84 in WSW 5.0 mph 8.0 mph 76% 0.00 in
19:24 71.1 °F 62.8 °F 29.84 in WSW 5.0 mph 10.0 mph 75% 0.00 in
19:29 71.3 °F 61.8 °F 29.84 in WSW 6.0 mph 10.0 mph 72% 0.00 in
19:34 71.4 °F 61.9 °F 29.84 in WSW 7.0 mph 12.0 mph 72% 0.00 in
19:39 71.1 °F 61.2 °F 29.84 in West 4.0 mph 9.0 mph 71% 0.00 in
19:44 71.0 °F 61.5 °F 29.85 in SW 5.0 mph 10.0 mph 72% 0.00 in
19:49 70.9 °F 61.4 °F 29.84 in WSW 8.0 mph 9.0 mph 72% 0.00 in
19:54 71.0 °F 61.1 °F 29.85 in SW 5.0 mph 9.0 mph 71% 0.00 in
19:59 71.2 °F 61.3 °F 29.85 in WSW 5.0 mph 10.0 mph 71% 0.00 in
20:04 71.1 °F 61.2 °F 29.85 in WSW 5.0 mph 11.0 mph 71% 0.00 in
20:09 71.1 °F 61.6 °F 29.85 in SW 5.0 mph 11.0 mph 72% 0.00 in
20:14 71.0 °F 61.9 °F 29.85 in SW 5.0 mph 10.0 mph 73% 0.00 in
20:19 70.8 °F 61.7 °F 29.85 in SSW 4.0 mph 8.0 mph 73% 0.00 in
20:24 70.6 °F 61.5 °F 29.85 in SW 6.0 mph 9.0 mph 73% 0.00 in
20:29 70.5 °F 61.4 °F 29.85 in WSW 2.0 mph 6.0 mph 73% 0.00 in
20:34 70.3 °F 61.2 °F 29.85 in SW 4.0 mph 9.0 mph 73% 0.00 in
20:39 70.0 °F 60.9 °F 29.86 in SSW 3.0 mph 9.0 mph 73% 0.00 in
20:44 69.8 °F 60.8 °F 29.86 in SW 2.0 mph 8.0 mph 73% 0.00 in
20:49 69.6 °F 60.2 °F 29.86 in SSW 3.0 mph 13.0 mph 72% 0.00 in
20:54 69.3 °F 59.9 °F 29.86 in SW 9.0 mph 10.0 mph 72% 0.00 in
20:59 69.1 °F 59.7 °F 29.87 in SW 6.0 mph 14.0 mph 72% 0.00 in
21:04 68.9 °F 59.9 °F 29.87 in SW 6.0 mph 14.0 mph 73% 0.00 in
21:09 68.7 °F 60.1 °F 29.87 in SW 6.0 mph 14.0 mph 74% 0.00 in
21:14 68.6 °F 60.4 °F 29.87 in SW 6.0 mph 14.0 mph 75% 0.00 in
21:19 68.4 °F 60.5 °F 29.88 in SW 5.0 mph 11.0 mph 76% 0.00 in
21:24 68.4 °F 60.9 °F 29.88 in WSW 4.0 mph 13.0 mph 77% 0.00 in
21:29 68.2 °F 60.7 °F 29.89 in WSW 5.0 mph 9.0 mph 77% 0.00 in
21:34 68.2 °F 60.7 °F 29.89 in WSW 4.0 mph 10.0 mph 77% 0.00 in
21:39 68.2 °F 61.1 °F 29.89 in WSW 3.0 mph 12.0 mph 78% 0.00 in
21:44 68.2 °F 61.4 °F 29.89 in SW 5.0 mph 9.0 mph 79% 0.00 in
21:49 68.2 °F 61.4 °F 29.89 in WSW 10.0 mph 13.0 mph 79% 0.00 in
21:54 68.1 °F 61.7 °F 29.89 in WSW 6.0 mph 13.0 mph 80% 0.00 in
21:59 68.0 °F 61.9 °F 29.90 in SW 5.0 mph 10.0 mph 81% 0.00 in
22:04 67.8 °F 61.8 °F 29.90 in SW 4.0 mph 10.0 mph 81% 0.00 in
22:09 67.6 °F 61.6 °F 29.90 in SW 4.0 mph 10.0 mph 81% 0.00 in
22:14 67.5 °F 61.5 °F 29.90 in SW 4.0 mph 10.0 mph 81% 0.00 in
22:19 67.4 °F 61.4 °F 29.90 in SW 4.0 mph 10.0 mph 81% 0.00 in
22:24 67.3 °F 61.3 °F 29.90 in SW 4.0 mph 9.0 mph 81% 0.00 in
22:29 67.2 °F 61.2 °F 29.90 in SW 1.0 mph 9.0 mph 81% 0.00 in
22:34 67.2 °F 61.2 °F 29.90 in SW 4.0 mph 6.0 mph 81% 0.00 in
22:39 67.2 °F 61.5 °F 29.90 in WSW 4.0 mph 7.0 mph 82% 0.00 in
22:44 67.1 °F 61.4 °F 29.90 in SSW 2.0 mph 6.0 mph 82% 0.00 in
22:49 67.1 °F 61.4 °F 29.90 in SSW 1.0 mph 6.0 mph 82% 0.00 in
22:54 67.1 °F 61.4 °F 29.91 in SW 2.0 mph 6.0 mph 82% 0.00 in
22:59 67.1 °F 61.4 °F 29.91 in SW 2.0 mph 5.0 mph 82% 0.00 in
23:04 67.1 °F 61.4 °F 29.91 in SSW 2.0 mph 6.0 mph 82% 0.00 in
23:09 67.1 °F 61.8 °F 29.91 in SSW 3.0 mph 5.0 mph 83% 0.00 in
23:14 67.1 °F 61.8 °F 29.91 in SW 3.0 mph 5.0 mph 83% 0.00 in
23:19 67.1 °F 61.8 °F 29.91 in SW 2.0 mph 8.0 mph 83% 0.00 in
23:24 67.0 °F 61.7 °F 29.91 in SW 3.0 mph 8.0 mph 83% 0.00 in
23:29 67.0 °F 61.7 °F 29.91 in SW 3.0 mph 6.0 mph 83% 0.00 in
23:39 66.9 °F 61.6 °F 29.91 in Calm   4.0 mph 83% 0.00 in
23:44 66.9 °F 61.6 °F 29.91 in SSW 2.0 mph 4.0 mph 83% 0.00 in
23:49 66.7 °F 61.7 °F 29.91 in Calm   2.0 mph 84% 0.00 in
23:54 66.4 °F 61.4 °F 29.92 in Calm   3.0 mph 84% 0.00 in
23:59 66.1 °F 61.5 °F 29.92 in Calm     85% 0.00 in
Buffalo, New York, USA
Compliments of Weather Underground - 2.5 mb